createdAt,value
2018-02-22T00:00:30.411Z,87.90
2018-02-22T00:02:57.937Z,87.70
2018-02-22T00:05:25.441Z,87.70
2018-02-22T00:07:53.730Z,87.90
2018-02-22T00:10:21.234Z,87.90
2018-02-22T00:12:48.766Z,87.90
2018-02-22T00:15:16.280Z,88.20
2018-02-22T00:17:43.806Z,88.20
2018-02-22T00:20:11.314Z,88.30
2018-02-22T00:22:39.605Z,88.40
2018-02-22T00:25:07.113Z,88.40
2018-02-22T00:27:34.645Z,88.30
2018-02-22T00:30:02.147Z,88.40
2018-02-22T00:32:29.651Z,88.60
2018-02-22T00:34:57.171Z,88.60
2018-02-22T00:37:24.670Z,88.40
2018-02-22T00:39:52.197Z,89.20
2018-02-22T00:42:20.459Z,88.60
2018-02-22T00:44:47.980Z,88.60
2018-02-22T00:47:15.490Z,88.70
2018-02-22T00:49:43.784Z,88.60
2018-02-22T00:52:11.286Z,88.50
2018-02-22T00:54:38.786Z,88.70
2018-02-22T00:57:07.078Z,88.90
2018-02-22T00:59:34.582Z,88.90
2018-02-22T01:02:02.106Z,89.00
2018-02-22T01:04:29.609Z,88.90
2018-02-22T01:06:57.173Z,88.80
2018-02-22T01:09:24.679Z,88.90
2018-02-22T01:11:52.198Z,88.90
2018-02-22T01:14:19.699Z,88.90
2018-02-22T01:16:47.222Z,88.90
2018-02-22T01:19:15.489Z,88.90
2018-02-22T01:21:42.990Z,88.90
2018-02-22T01:24:10.513Z,88.80
2018-02-22T01:26:38.777Z,89.40
2018-02-22T01:29:06.301Z,88.90
2018-02-22T01:31:33.797Z,88.80
2018-02-22T01:34:01.326Z,89.70
2018-02-22T01:36:28.829Z,89.60
2018-02-22T01:38:57.113Z,89.60
2018-02-22T01:41:25.377Z,89.10
2018-02-22T01:43:53.670Z,89.10
2018-02-22T01:46:21.934Z,89.10
2018-02-22T01:48:50.202Z,89.10
2018-02-22T01:51:17.722Z,89.10
2018-02-22T01:53:45.226Z,89.50
2018-02-22T01:56:13.517Z,89.00
2018-02-22T01:58:41.018Z,89.00
2018-02-22T02:01:08.533Z,89.00
2018-02-22T02:03:36.802Z,89.10
2018-02-22T02:06:05.090Z,89.10
2018-02-22T02:08:32.594Z,89.10
2018-02-22T02:11:00.098Z,89.00
2018-02-22T02:13:28.385Z,89.30
2018-02-22T02:15:55.886Z,89.20
2018-02-22T02:18:23.414Z,89.20
2018-02-22T02:20:50.917Z,89.40
2018-02-22T02:23:18.446Z,89.40
2018-02-22T02:25:45.949Z,89.50
2018-02-22T02:28:13.469Z,89.40
2018-02-22T02:30:40.978Z,90.10
2018-02-22T02:33:09.251Z,89.80
2018-02-22T02:35:37.546Z,89.70
2018-02-22T02:38:05.051Z,89.70
2018-02-22T02:40:32.578Z,89.60
2018-02-22T02:43:00.078Z,89.50
2018-02-22T02:45:27.602Z,89.70
2018-02-22T02:47:55.104Z,89.70
2018-02-22T02:50:22.638Z,89.70
2018-02-22T02:52:50.138Z,89.70
2018-02-22T02:55:18.405Z,89.70
2018-02-22T02:57:45.930Z,89.70
2018-02-22T03:00:13.434Z,90.00
2018-02-22T03:02:41.726Z,89.80
2018-02-22T03:05:09.234Z,89.80
2018-02-22T03:07:36.757Z,89.80
2018-02-22T03:10:04.258Z,89.70
2018-02-22T03:12:31.761Z,89.80
2018-02-22T03:14:59.277Z,89.80
2018-02-22T03:17:26.778Z,89.80
2018-02-22T03:19:54.310Z,89.80
2018-02-22T03:22:21.818Z,90.00
2018-02-22T03:24:49.339Z,89.80
2018-02-22T03:27:17.608Z,89.80
2018-02-22T03:29:45.902Z,90.00
2018-02-22T03:32:13.402Z,90.00
2018-02-22T03:34:40.902Z,90.10
2018-02-22T03:37:09.194Z,90.00
2018-02-22T03:39:37.461Z,90.00
2018-02-22T03:42:05.756Z,90.00
2018-02-22T03:44:33.263Z,90.00
2018-02-22T03:47:00.786Z,89.80
2018-02-22T03:49:28.292Z,89.80
2018-02-22T03:51:55.817Z,89.90
2018-02-22T03:54:23.349Z,90.00
2018-02-22T03:56:50.850Z,90.00
2018-02-22T03:59:18.375Z,89.90
2018-02-22T04:01:45.883Z,89.90
2018-02-22T04:04:13.410Z,89.90
2018-02-22T04:06:40.915Z,89.80
2018-02-22T04:09:09.211Z,90.10
2018-02-22T04:11:36.718Z,90.00
2018-02-22T04:14:04.246Z,90.00
2018-02-22T04:16:31.746Z,90.00
2018-02-22T04:18:59.245Z,90.00
2018-02-22T04:21:26.770Z,90.00
2018-02-22T04:23:54.270Z,90.00
2018-02-22T04:26:21.797Z,90.00
2018-02-22T04:28:49.298Z,90.00
2018-02-22T04:31:16.825Z,90.40
2018-02-22T04:33:45.099Z,90.00
2018-02-22T04:36:13.393Z,90.00
2018-02-22T04:38:40.894Z,90.00
2018-02-22T04:41:08.394Z,90.00
2018-02-22T04:43:36.683Z,90.10
2018-02-22T04:46:04.955Z,90.10
2018-02-22T04:48:33.246Z,90.10
2018-02-22T04:51:00.750Z,90.10
2018-02-22T04:53:28.272Z,90.10
2018-02-22T04:55:55.776Z,90.10
2018-02-22T04:58:23.282Z,90.10
2018-02-22T05:00:51.687Z,90.20
2018-02-22T05:03:19.190Z,90.10
2018-02-22T05:05:47.486Z,90.10
2018-02-22T05:08:14.987Z,90.10
2018-02-22T05:10:42.514Z,90.10
2018-02-22T05:13:10.022Z,90.10
2018-02-22T05:15:37.550Z,90.20
2018-02-22T05:18:05.055Z,90.10
2018-02-22T05:20:33.326Z,90.40
2018-02-22T05:23:00.859Z,90.10
2018-02-22T05:25:28.371Z,90.10
2018-02-22T05:27:56.663Z,90.10
2018-02-22T05:30:24.172Z,90.10
2018-02-22T05:32:51.693Z,90.10
2018-02-22T05:35:19.198Z,90.20
2018-02-22T05:37:46.726Z,90.20
2018-02-22T05:40:14.229Z,90.30
2018-02-22T05:42:42.498Z,90.30
2018-02-22T05:45:10.794Z,90.40
2018-02-22T05:47:38.298Z,90.40
2018-02-22T05:50:05.836Z,90.30
2018-02-22T05:52:33.346Z,90.30
2018-02-22T05:55:00.878Z,90.20
2018-02-22T05:57:28.383Z,90.60
2018-02-22T05:59:56.675Z,90.20
2018-02-22T06:02:24.186Z,90.20
2018-02-22T06:04:51.691Z,90.20
2018-02-22T06:07:19.218Z,90.20
2018-02-22T06:09:47.490Z,90.20
2018-02-22T06:12:15.010Z,90.20
2018-02-22T06:14:42.520Z,90.20
2018-02-22T06:17:10.818Z,90.20
2018-02-22T06:19:38.319Z,90.20
2018-02-22T06:22:05.844Z,90.20
2018-02-22T06:24:33.350Z,90.20
2018-02-22T06:27:00.857Z,90.20
2018-02-22T06:29:28.384Z,90.20
2018-02-22T06:31:56.655Z,90.20
2018-02-22T06:34:24.178Z,90.20
2018-02-22T06:36:51.682Z,90.50
2018-02-22T06:39:19.975Z,90.10
2018-02-22T06:41:47.479Z,90.00
2018-02-22T06:44:14.983Z,90.00
2018-02-22T06:46:43.279Z,89.70
2018-02-22T06:49:10.786Z,89.70
2018-02-22T06:51:38.311Z,89.70
2018-02-22T06:54:05.816Z,89.60
2018-02-22T06:56:33.343Z,89.40
2018-02-22T06:59:00.846Z,90.00
2018-02-22T07:01:29.114Z,89.30
2018-02-22T07:03:57.410Z,89.10
2018-02-22T07:06:24.913Z,88.90
2018-02-22T07:08:52.440Z,89.00
2018-02-22T07:11:19.951Z,88.90
2018-02-22T07:13:47.483Z,88.80
2018-02-22T07:16:14.986Z,88.80
2018-02-22T07:18:43.256Z,88.90
2018-02-22T07:21:10.783Z,88.80
2018-02-22T07:23:38.287Z,89.40
2018-02-22T07:26:06.578Z,88.30
2018-02-22T07:28:34.082Z,88.20
2018-02-22T07:31:01.611Z,88.00
2018-02-22T07:33:29.110Z,87.30
2018-02-22T07:35:56.633Z,87.20
2018-02-22T07:38:24.162Z,86.70
2018-02-22T07:40:52.431Z,85.60
2018-02-22T07:43:20.731Z,87.30
2018-02-22T07:45:48.238Z,87.30
2018-02-22T07:48:15.768Z,86.30
2018-02-22T07:50:43.270Z,85.40
2018-02-22T07:53:10.798Z,84.50
2018-02-22T07:55:38.302Z,84.90
2018-02-22T07:58:06.570Z,84.20
2018-02-22T08:00:34.878Z,84.30
2018-02-22T08:03:02.383Z,84.30
2018-02-22T08:05:29.914Z,83.10
2018-02-22T08:07:57.424Z,83.10
2018-02-22T08:10:25.702Z,82.50
2018-02-22T08:12:53.995Z,81.80
2018-02-22T08:15:21.537Z,81.60
2018-02-22T08:17:49.047Z,80.50
2018-02-22T08:20:16.564Z,80.80
2018-02-22T08:22:44.830Z,80.10
2018-02-22T08:25:13.123Z,80.10
2018-02-22T08:27:40.626Z,80.10
2018-02-22T08:30:08.154Z,80.20
2018-02-22T08:32:35.655Z,79.00
2018-02-22T08:35:03.179Z,78.80
2018-02-22T08:37:30.682Z,78.80
2018-02-22T08:39:58.980Z,85.50
2018-02-22T08:42:27.250Z,81.00
2018-02-22T08:44:55.521Z,80.60
2018-02-22T08:47:23.061Z,80.10
2018-02-22T08:49:50.587Z,75.30
2018-02-22T08:52:18.106Z,72.70
2018-02-22T08:54:46.369Z,67.30
2018-02-22T08:57:13.882Z,67.40
2018-02-22T08:59:41.394Z,67.20
2018-02-22T09:02:09.683Z,65.00
2018-02-22T09:04:37.950Z,61.00
2018-02-22T09:07:06.213Z,54.20
2018-02-22T09:09:33.735Z,54.10
2018-02-22T09:12:01.226Z,45.90
2018-02-22T09:14:28.738Z,39.70
2018-02-22T09:16:56.265Z,35.20
2018-02-22T09:19:24.546Z,29.10
2018-02-22T09:21:52.050Z,29.10
2018-02-22T09:24:19.584Z,27.80
2018-02-22T09:26:47.087Z,26.30
2018-02-22T09:29:14.652Z,24.90
2018-02-22T09:31:42.146Z,24.70
2018-02-22T09:34:09.662Z,24.20
2018-02-22T09:36:37.244Z,23.60
2018-02-22T09:39:04.710Z,22.60
2018-02-22T09:41:33.002Z,22.30
2018-02-22T09:44:00.502Z,22.20
2018-02-22T09:46:27.998Z,21.70
2018-02-22T09:48:56.281Z,20.90
2018-02-22T09:51:24.582Z,20.90
2018-02-22T09:53:52.838Z,21.00
2018-02-22T09:56:21.106Z,20.50
2018-02-22T09:58:49.390Z,20.80
2018-02-22T10:01:17.655Z,20.10
2018-02-22T10:03:45.946Z,19.60
2018-02-22T10:06:14.218Z,19.70
2018-02-22T10:08:42.491Z,19.10
2018-02-22T10:11:10.778Z,19.40
2018-02-22T10:13:39.038Z,18.70
2018-02-22T10:16:07.326Z,18.90
2018-02-22T10:18:35.595Z,17.80
2018-02-22T10:21:03.878Z,17.90
2018-02-22T10:23:32.142Z,17.60
2018-02-22T10:26:00.430Z,17.00
2018-02-22T10:28:28.699Z,16.60
2018-02-22T10:30:56.218Z,16.60
2018-02-22T10:33:23.735Z,17.20
2018-02-22T10:35:51.228Z,17.60
2018-02-22T10:38:18.749Z,18.40
2018-02-22T10:40:46.250Z,18.80
2018-02-22T10:43:13.770Z,19.20
2018-02-22T10:45:41.262Z,19.90
2018-02-22T10:48:08.778Z,19.50
2018-02-22T10:50:37.037Z,19.50
2018-02-22T10:53:04.536Z,19.40
2018-02-22T10:55:32.058Z,19.70
2018-02-22T10:58:00.322Z,18.20
2018-02-22T11:00:33.467Z,17.90
2018-02-22T11:03:00.966Z,17.50
2018-02-22T11:05:28.485Z,17.30
2018-02-22T11:07:55.978Z,17.40
2018-02-22T11:10:23.497Z,17.60
2018-02-22T11:12:50.999Z,17.20
2018-02-22T11:15:18.522Z,17.50
2018-02-22T11:17:46.018Z,17.50
2018-02-22T11:20:13.510Z,17.40
2018-02-22T11:22:41.796Z,19.40
2018-02-22T11:25:09.295Z,19.40
2018-02-22T11:27:36.814Z,20.30
2018-02-22T11:30:04.315Z,20.40
2018-02-22T11:32:31.834Z,20.60
2018-02-22T11:34:59.330Z,21.00
2018-02-22T11:37:26.851Z,21.40
2018-02-22T11:39:54.350Z,21.10
2018-02-22T11:42:21.842Z,21.10
2018-02-22T11:44:50.121Z,20.20
2018-02-22T11:47:18.379Z,19.70
2018-02-22T11:49:45.906Z,19.60
2018-02-22T11:52:13.402Z,19.40
2018-02-22T11:54:41.706Z,18.70
2018-02-22T11:57:09.199Z,18.70
2018-02-22T11:59:36.718Z,18.30
2018-02-22T12:02:04.210Z,17.60
2018-02-22T12:04:31.715Z,17.40
2018-02-22T12:06:59.997Z,17.00
2018-02-22T12:09:28.258Z,16.70
2018-02-22T12:11:55.775Z,16.60
2018-02-22T12:14:23.278Z,16.50
2018-02-22T12:16:50.794Z,16.50
2018-02-22T12:19:18.286Z,16.70
2018-02-22T12:21:45.811Z,17.20
2018-02-22T12:24:13.306Z,17.50
2018-02-22T12:26:40.803Z,17.00
2018-02-22T12:29:08.317Z,17.30
2018-02-22T12:31:35.811Z,17.50
2018-02-22T12:34:03.329Z,18.20
2018-02-22T12:36:30.822Z,19.20
2018-02-22T12:38:59.110Z,19.80
2018-02-22T12:41:26.614Z,19.80
2018-02-22T12:43:54.125Z,20.40
2018-02-22T12:46:21.618Z,20.70
2018-02-22T12:48:49.123Z,20.50
2018-02-22T12:51:17.410Z,21.50
2018-02-22T12:53:45.674Z,21.80
2018-02-22T12:56:13.966Z,21.90
2018-02-22T12:58:41.466Z,21.90
2018-02-22T13:03:41.823Z,22.50
2018-02-22T13:06:09.339Z,22.90
2018-02-22T13:08:36.838Z,22.90
2018-02-22T13:11:04.360Z,22.60
2018-02-22T13:13:31.882Z,22.60
2018-02-22T13:16:00.141Z,23.30
2018-02-22T13:18:27.658Z,23.30
2018-02-22T13:20:55.158Z,23.20
2018-02-22T13:23:22.682Z,23.60
2018-02-22T13:25:50.178Z,24.20
2018-02-22T13:28:17.697Z,24.00
2018-02-22T13:30:45.198Z,23.70
2018-02-22T13:33:24.462Z,23.70
2018-02-22T13:35:51.957Z,24.20
2018-02-22T13:38:31.426Z,23.70
2018-02-22T13:40:58.929Z,24.50
2018-02-22T13:43:26.434Z,25.20
2018-02-22T13:45:53.958Z,24.90
2018-02-22T13:48:21.459Z,24.80
2018-02-22T13:51:01.025Z,23.50
2018-02-22T13:53:28.542Z,24.10
2018-02-22T13:55:56.067Z,23.90
2018-02-22T13:58:23.567Z,24.10
2018-02-22T14:01:02.970Z,24.60
2018-02-22T14:03:30.471Z,25.00
2018-02-22T14:05:57.994Z,24.70
2018-02-22T14:08:37.325Z,24.90
2018-02-22T14:11:04.842Z,24.70
2018-02-22T14:13:33.108Z,24.70
2018-02-22T14:16:00.606Z,24.70
2018-02-22T14:18:28.133Z,25.40
2018-02-22T14:20:56.394Z,25.70
2018-02-22T14:23:23.918Z,25.70
2018-02-22T14:25:51.422Z,26.30
2018-02-22T14:28:18.995Z,26.20
2018-02-22T14:30:46.471Z,25.90
2018-02-22T14:33:13.994Z,25.80
2018-02-22T14:35:41.498Z,25.80
2018-02-22T14:38:08.999Z,26.10
2018-02-22T14:40:36.528Z,26.10
2018-02-22T14:43:04.026Z,26.10
2018-02-22T14:45:31.605Z,26.40
2018-02-22T14:47:59.843Z,26.60
2018-02-22T14:50:27.378Z,26.50
2018-02-22T14:52:54.879Z,26.90
2018-02-22T14:55:22.404Z,27.10
2018-02-22T14:57:49.910Z,27.40
2018-02-22T15:00:18.173Z,27.70
2018-02-22T15:02:45.693Z,27.60
2018-02-22T15:05:13.195Z,28.20
2018-02-22T15:07:41.507Z,28.30
2018-02-22T15:10:09.006Z,28.50
2018-02-22T15:12:36.535Z,28.60
2018-02-22T15:15:04.032Z,28.90
2018-02-22T15:17:31.557Z,29.20
2018-02-22T15:19:59.064Z,29.30
2018-02-22T15:22:26.558Z,29.40
2018-02-22T15:24:54.083Z,30.20
2018-02-22T15:27:22.353Z,30.30
2018-02-22T15:29:50.182Z,30.20
2018-02-22T15:32:17.674Z,30.40
2018-02-22T15:34:45.203Z,30.80
2018-02-22T15:37:12.694Z,31.10
2018-02-22T15:39:40.196Z,31.60
2018-02-22T15:42:07.714Z,32.50
2018-02-22T15:44:35.210Z,32.60
2018-02-22T15:47:02.738Z,33.60
2018-02-22T15:49:31.011Z,33.10
2018-02-22T15:51:59.307Z,33.50
2018-02-22T15:54:27.562Z,33.90
2018-02-22T15:56:55.082Z,33.90
2018-02-22T15:59:23.351Z,34.60
2018-02-22T16:01:50.841Z,34.50
2018-02-22T16:04:18.358Z,34.90
2018-02-22T16:06:45.858Z,35.50
2018-02-22T16:09:13.373Z,35.70
2018-02-22T16:11:40.874Z,36.20
2018-02-22T16:14:08.432Z,36.20
2018-02-22T16:16:35.920Z,36.80
2018-02-22T16:19:04.210Z,37.50
2018-02-22T16:21:31.705Z,37.50
2018-02-22T16:23:59.210Z,37.60
2018-02-22T16:26:27.499Z,38.70
2018-02-22T16:28:54.998Z,38.60
2018-02-22T16:31:22.518Z,39.20
2018-02-22T16:33:50.018Z,39.80
2018-02-22T16:36:17.547Z,40.60
2018-02-22T16:38:45.043Z,41.10
2018-02-22T16:41:12.562Z,41.50
2018-02-22T16:43:40.063Z,42.00
2018-02-22T16:46:07.562Z,42.40
2018-02-22T16:48:35.838Z,43.40
2018-02-22T16:51:04.098Z,44.10
2018-02-22T16:53:32.379Z,45.30
2018-02-22T16:56:00.637Z,45.30
2018-02-22T16:58:28.150Z,45.20
2018-02-22T17:00:55.643Z,45.90
2018-02-22T17:03:23.166Z,46.60
2018-02-22T17:05:50.661Z,47.10
2018-02-22T17:08:18.153Z,47.70
2018-02-22T17:10:46.438Z,48.70
2018-02-22T17:13:14.701Z,49.40
2018-02-22T17:15:42.990Z,50.20
2018-02-22T17:18:10.494Z,50.20
2018-02-22T17:20:38.015Z,50.50
2018-02-22T17:23:05.510Z,51.30
2018-02-22T17:25:32.538Z,51.20
2018-02-22T17:28:05.650Z,51.60
2018-02-22T17:30:38.789Z,52.30
2018-02-22T17:33:07.054Z,53.40
2018-02-22T17:35:38.194Z,53.90
2018-02-22T17:38:06.466Z,54.50
2018-02-22T17:40:47.896Z,55.00
2018-02-22T17:43:15.390Z,54.70
2018-02-22T17:45:42.906Z,55.30
2018-02-22T17:48:10.425Z,55.80
2018-02-22T17:50:37.923Z,56.00
2018-02-22T17:53:05.446Z,56.20
2018-02-22T17:55:32.944Z,57.00
2018-02-22T17:58:00.458Z,57.10
2018-02-22T18:00:27.950Z,57.40
2018-02-22T18:02:55.470Z,57.60
2018-02-22T18:05:22.975Z,58.00
2018-02-22T18:07:50.474Z,58.40
2018-02-22T18:10:17.998Z,58.60
2018-02-22T18:12:45.534Z,58.60
2018-02-22T18:15:13.811Z,58.80
2018-02-22T18:17:41.310Z,58.70
2018-02-22T18:20:08.826Z,58.90
2018-02-22T18:22:37.091Z,58.70
2018-02-22T18:25:05.351Z,59.20
2018-02-22T18:27:32.879Z,59.20
2018-02-22T18:30:00.379Z,59.50
2018-02-22T18:32:28.672Z,65.60
2018-02-22T18:34:56.952Z,65.90
2018-02-22T18:37:30.905Z,63.80
2018-02-22T18:40:04.039Z,63.80
2018-02-22T18:42:32.322Z,60.90
2018-02-22T18:45:13.334Z,60.20
2018-02-22T18:47:40.858Z,60.20
2018-02-22T18:50:09.127Z,60.00
2018-02-22T18:52:37.382Z,60.00
2018-02-22T18:55:04.902Z,60.00
2018-02-22T18:57:32.394Z,60.10
2018-02-22T18:59:59.912Z,60.40
2018-02-22T19:02:27.406Z,60.70
2018-02-22T19:04:54.929Z,60.70
2018-02-22T19:07:22.431Z,61.00
2018-02-22T19:09:49.956Z,60.60
2018-02-22T19:12:17.451Z,61.00
2018-02-22T19:14:44.947Z,61.30
2018-02-22T19:17:12.466Z,61.30
2018-02-22T19:19:39.967Z,61.70
2018-02-22T19:22:07.485Z,61.60
2018-02-22T19:24:34.978Z,61.60
2018-02-22T19:27:02.503Z,61.70
2018-02-22T19:29:29.998Z,61.80
2018-02-22T19:31:57.522Z,62.00
2018-02-22T19:34:25.024Z,63.90
2018-02-22T19:36:52.517Z,64.30
2018-02-22T19:39:20.034Z,62.80
2018-02-22T19:41:47.526Z,62.70
2018-02-22T19:44:15.046Z,62.60
2018-02-22T19:46:42.543Z,62.60
2018-02-22T19:49:10.062Z,62.70
2018-02-22T19:51:37.559Z,62.80
2018-02-22T19:54:05.050Z,63.20
2018-02-22T19:56:33.334Z,62.60
2018-02-22T19:59:01.594Z,63.40
2018-02-22T20:01:29.113Z,63.40
2018-02-22T20:03:56.606Z,63.10
2018-02-22T20:06:24.121Z,63.50
2018-02-22T20:08:51.664Z,63.20
2018-02-22T20:11:19.155Z,63.50
2018-02-22T20:13:46.650Z,63.50
2018-02-22T20:16:14.147Z,63.50
2018-02-22T20:18:41.666Z,64.50
2018-02-22T20:21:09.163Z,63.90
2018-02-22T20:23:36.678Z,66.30
2018-02-22T20:26:04.169Z,68.70
2018-02-22T20:28:31.686Z,66.90
2018-02-22T20:30:59.178Z,66.80
2018-02-22T20:33:27.442Z,64.90
2018-02-22T20:35:55.722Z,64.40
2018-02-22T20:38:23.981Z,64.40
2018-02-22T20:40:51.502Z,64.40
2018-02-22T20:43:19.036Z,64.60
2018-02-22T20:45:46.557Z,64.70
2018-02-22T20:48:14.060Z,64.80
2018-02-22T20:50:41.559Z,65.00
2018-02-22T20:53:27.802Z,65.10
2018-02-22T20:55:55.302Z,65.40
2018-02-22T20:58:22.823Z,65.50
2018-02-22T21:00:50.314Z,65.70
2018-02-22T21:03:28.714Z,65.90
2018-02-22T21:05:56.211Z,66.20
2018-02-22T21:08:23.715Z,66.20
2018-02-22T21:10:51.238Z,66.20
2018-02-22T21:13:18.734Z,66.50
2018-02-22T21:15:46.257Z,66.50
2018-02-22T21:18:13.762Z,66.70
2018-02-22T21:20:41.283Z,67.00
2018-02-22T21:23:09.557Z,67.50
2018-02-22T21:25:37.826Z,67.40
2018-02-22T21:28:05.350Z,67.40
2018-02-22T21:30:32.866Z,67.60
2018-02-22T21:33:01.159Z,68.00
2018-02-22T21:35:28.660Z,68.00
2018-02-22T21:37:56.183Z,67.90
2018-02-22T21:40:23.682Z,68.00
2018-02-22T21:42:51.182Z,68.00
2018-02-22T21:45:18.702Z,68.20
2018-02-22T21:47:46.203Z,68.20
2018-02-22T21:50:13.721Z,68.30
2018-02-22T21:52:41.224Z,68.40
2018-02-22T21:55:08.747Z,68.50
2018-02-22T21:57:36.250Z,68.60
2018-02-22T22:00:03.781Z,74.90
2018-02-22T22:02:32.047Z,71.50
2018-02-22T22:05:00.318Z,70.80
2018-02-22T22:07:27.833Z,70.80
2018-02-22T22:09:55.335Z,71.80
2018-02-22T22:12:23.622Z,72.60
2018-02-22T22:14:51.898Z,71.10
2018-02-22T22:17:20.185Z,70.60
2018-02-22T22:19:47.702Z,70.50
2018-02-22T22:22:15.226Z,70.40
2018-02-22T22:24:42.727Z,70.40
2018-02-22T22:27:10.226Z,69.90
2018-02-22T22:29:37.746Z,71.00
2018-02-22T22:32:05.246Z,69.40
2018-02-22T22:34:32.770Z,69.50
2018-02-22T22:37:00.266Z,69.60
2018-02-22T22:39:27.790Z,69.70
2018-02-22T22:41:55.292Z,69.70
2018-02-22T22:44:22.819Z,69.90
2018-02-22T22:46:51.087Z,69.90
2018-02-22T22:49:19.374Z,69.90
2018-02-22T22:51:47.634Z,70.20
2018-02-22T22:54:15.918Z,70.10
2018-02-22T22:56:44.206Z,70.20
2018-02-22T22:59:12.470Z,70.20
2018-02-22T23:01:40.757Z,70.50
2018-02-22T23:04:09.022Z,70.60
2018-02-22T23:06:37.310Z,70.50
2018-02-22T23:09:05.575Z,70.90
2018-02-22T23:11:33.833Z,71.00
2018-02-22T23:14:01.350Z,71.00
2018-02-22T23:16:28.850Z,71.10
2018-02-22T23:18:56.370Z,71.20
2018-02-22T23:21:23.874Z,71.50
2018-02-22T23:23:51.398Z,71.50
2018-02-22T23:26:18.894Z,71.80
2018-02-22T23:28:46.422Z,71.80
2018-02-22T23:31:13.922Z,72.10
2018-02-22T23:33:42.186Z,72.20
2018-02-22T23:36:09.709Z,72.10
2018-02-22T23:38:37.210Z,72.30
2018-02-22T23:41:17.002Z,72.60
2018-02-22T23:43:44.503Z,72.50
2018-02-22T23:46:12.030Z,72.50
2018-02-22T23:48:39.534Z,73.10
2018-02-22T23:51:07.801Z,73.30
2018-02-22T23:53:35.326Z,73.10
2018-02-22T23:56:02.822Z,73.10
2018-02-22T23:58:30.350Z,73.30
